FW5376 Seattle WA US current weather conditions

sailwx.info

Wind from 023 at 1 knots gusting 2

Air temperature 16.7° C
Dewpoint 11.8° C

Last reported at 2020-Aug-04 14:05 UTC.
Time now 2020-Aug-04 14:36 UTC

Location: N 47°30' W 122°16'.
View on Google Maps.

See reports from other nearby stations

  
Tides and Currents Weather Stations Pressure Air Temp Water Temp Dewpoint Dewpoint Depression Visibility Wind Speed Wind Dir Waves Ship Positions
date/time (UTC)wind fromknots sea level pressurealtimeterstation pressurevisibilityair tempwater tempwave heightnotes
2020-Aug-04 14:05 023 1 gusting 2 16.7
2020-Aug-04 13:45 315 0 gusting 1 16.1
2020-Aug-04 13:35 16.1
2020-Aug-04 13:25 16.1
2020-Aug-04 13:15 16.1
2020-Aug-04 13:05 16.1
2020-Aug-04 12:55 16.7
2020-Aug-04 12:45 16.7
2020-Aug-04 12:35 16.7
2020-Aug-04 12:25 16.7
2020-Aug-04 12:15 023 0 gusting 0 17.2
2020-Aug-04 12:05 023 1 gusting 2 17.2
2020-Aug-04 11:55 17.2
2020-Aug-04 11:45 17.2
2020-Aug-04 11:35 045 2 gusting 3 17.2
2020-Aug-04 11:25 068 1 gusting 2 17.8
2020-Aug-04 11:15 023 1 gusting 2 17.8
2020-Aug-04 11:05 023 1 gusting 2 17.8
2020-Aug-04 10:55 023 1 gusting 2 17.8
2020-Aug-04 10:45 023 1 gusting 3 17.8
2020-Aug-04 10:35 023 5 gusting 8 17.8
2020-Aug-04 10:25 045 3 gusting 4 17.8
2020-Aug-04 10:15 045 0 gusting 2 18.3
2020-Aug-04 10:05 068 5 gusting 6 18.3
2020-Aug-04 09:55 045 1 gusting 2 18.3
2020-Aug-04 09:45 18.3
2020-Aug-04 09:35 045 3 gusting 7 18.3
2020-Aug-04 09:25 045 2 gusting 3 18.3
2020-Aug-04 09:15 068 2 gusting 3 18.3
2020-Aug-04 09:05 023 2 gusting 3 18.3
2020-Aug-04 08:55 045 4 gusting 5 18.3
2020-Aug-04 08:45 068 2 gusting 3 18.3
2020-Aug-04 08:35 045 3 gusting 6 18.3
2020-Aug-04 08:25 045 3 gusting 4 18.3
2020-Aug-04 08:15 068 3 gusting 7 18.9
2020-Aug-04 08:05 045 3 gusting 4 18.9
2020-Aug-04 07:55 045 2 gusting 3 18.9
2020-Aug-04 07:45 045 3 gusting 4 18.9
2020-Aug-04 07:35 045 3 gusting 4 19.4
2020-Aug-04 07:25 045 4 gusting 5 19.4
2020-Aug-04 07:15 045 2 gusting 3 19.4
2020-Aug-04 07:05 045 6 gusting 7 19.4
2020-Aug-04 06:55 068 3 gusting 4 19.4
2020-Aug-04 06:45 045 2 gusting 4 20.0
2020-Aug-04 06:35 023 2 gusting 3 20.0
2020-Aug-04 06:25 045 3 gusting 5 20.0
2020-Aug-04 06:15 20.0
2020-Aug-04 06:05 045 4 gusting 6 20.0
2020-Aug-04 05:55 045 2 gusting 3 20.6
2020-Aug-04 05:45 20.6
2020-Aug-04 05:35 068 2 gusting 5 20.6
2020-Aug-04 05:25 068 4 gusting 6 20.6
2020-Aug-04 05:15 023 1 gusting 3 21.1
2020-Aug-04 05:05 023 1 gusting 2 21.1
2020-Aug-04 04:55 023 1 gusting 3 21.1
2020-Aug-04 04:45 21.1
2020-Aug-04 04:35 023 2 gusting 4 21.7
2020-Aug-04 04:25 023 2 gusting 3 21.7
2020-Aug-04 04:15 21.7
2020-Aug-04 04:05 023 0 gusting 2 21.7
2020-Aug-04 03:55 21.7
2020-Aug-04 03:45 22.2
2020-Aug-04 03:35 338 0 gusting 1 22.2
2020-Aug-04 03:25 023 4 gusting 6 22.2
2020-Aug-04 03:15 023 1 gusting 2 22.8
2020-Aug-04 03:05 22.8
2020-Aug-04 02:55 338 1 gusting 3 23.3
2020-Aug-04 02:45 023 2 gusting 4 23.3
2020-Aug-04 02:35 023 0 gusting 1 23.9
2020-Aug-04 02:25 270 2 gusting 5 23.9
2020-Aug-04 02:15 023 2 gusting 3 23.9
2020-Aug-04 02:05 045 1 gusting 3 24.4
2020-Aug-04 01:55 023 1 gusting 2 25.0
2020-Aug-04 01:45 315 3 gusting 6 25.0
2020-Aug-04 01:35 315 2 gusting 4 25.0
2020-Aug-04 01:25 338 1 gusting 2 25.6
2020-Aug-04 01:15 023 1 gusting 4 25.0
2020-Aug-04 01:05 25.6
2020-Aug-04 00:55 25.6
2020-Aug-04 00:45 045 2 gusting 5 25.6
2020-Aug-04 00:35 270 2 gusting 4 25.6
2020-Aug-04 00:25 26.1
2020-Aug-04 00:15 25.6
2020-Aug-04 00:05 25.6
2020-Aug-03 23:55 25.6
2020-Aug-03 23:45 045 5 gusting 9 25.6
2020-Aug-03 23:35 068 2 gusting 4 25.6
2020-Aug-03 23:25 045 4 gusting 6 25.0
2020-Aug-03 23:15 25.0
2020-Aug-03 23:05 068 5 gusting 8 25.0
2020-Aug-03 22:55 25.0
2020-Aug-03 22:45 023 4 gusting 8 25.6
2020-Aug-03 22:35 270 4 gusting 8 26.7
2020-Aug-03 22:25 090 1 gusting 2 25.6
2020-Aug-03 22:15 023 0 gusting 1 25.6
2020-Aug-03 22:05 293 1 gusting 1 25.6
2020-Aug-03 21:55 203 0 gusting 1 24.4
2020-Aug-03 21:45 293 1 gusting 3 24.4
2020-Aug-03 21:35 293 1 gusting 2 23.9
2020-Aug-03 21:25 203 1 gusting 2 23.9
2020-Aug-03 21:15 248 0 gusting 1 24.4
2020-Aug-03 21:05 203 1 gusting 2 23.3
2020-Aug-03 20:55 158 1 gusting 3 23.9
2020-Aug-03 20:45 045 0 gusting 1 23.9
2020-Aug-03 20:35 270 4 gusting 6 23.9
2020-Aug-03 20:25 203 2 gusting 5 23.9
2020-Aug-03 20:15 270 1 gusting 4 22.8
2020-Aug-03 20:05 293 1 gusting 3 23.3
2020-Aug-03 19:55 158 1 gusting 3 22.8
2020-Aug-03 19:45 158 3 gusting 6 23.3
2020-Aug-03 19:35 113 0 gusting 2 23.3
2020-Aug-03 19:25 158 2 gusting 4 22.8
2020-Aug-03 19:15 180 4 gusting 6 22.2
2020-Aug-03 19:05 180 1 gusting 3 22.2
2020-Aug-03 18:55 023 0 gusting 1 22.2
2020-Aug-03 18:45 180 5 gusting 6 21.7
2020-Aug-03 18:35 270 0 gusting 1 20.6
2020-Aug-03 18:25 270 0 gusting 0 20.6
2020-Aug-03 18:15 158 1 gusting 3 20.6
2020-Aug-03 18:05 180 1 gusting 2 20.0
2020-Aug-03 17:55 158 3 gusting 7 20.0
2020-Aug-03 17:45 180 3 gusting 7 19.4
2020-Aug-03 17:35 158 1 gusting 2 19.4
2020-Aug-03 17:25 135 1 gusting 4 19.4
2020-Aug-03 17:15 225 1 gusting 3 19.4
2020-Aug-03 17:05 135 4 gusting 6 19.4
2020-Aug-03 16:55 203 2 gusting 4 19.4
2020-Aug-03 16:45 135 1 gusting 3 18.9
2020-Aug-03 16:35 158 1 gusting 3 18.3
2020-Aug-03 16:25 158 3 gusting 6 18.9
2020-Aug-03 16:15 203 1 gusting 2 18.3
2020-Aug-03 16:05 180 2 gusting 4 17.8
2020-Aug-03 15:55 158 1 gusting 3 17.8
2020-Aug-03 15:45 158 0 gusting 1 17.2
2020-Aug-03 15:35 158 1 gusting 3 17.2
2020-Aug-03 15:25 135 1 gusting 3 17.2
2020-Aug-03 15:15 180 0 gusting 0 17.2
2020-Aug-03 15:05 158 0 gusting 1 16.7
2020-Aug-03 14:55 158 0 gusting 0 16.7
2020-Aug-03 14:45 16.7
2020-Aug-03 14:35 225 1 gusting 3 16.7
2020-Aug-03 14:25 135 0 gusting 1 16.7
2020-Aug-03 14:15 158 1 gusting 3 16.7
2020-Aug-03 14:05 180 0 gusting 1 16.7
2020-Aug-03 13:55 16.1
2020-Aug-03 13:45 16.1
2020-Aug-03 13:35 180 0 gusting 1 15.6
2020-Aug-03 13:25 15.6
2020-Aug-03 13:15 15.6
2020-Aug-03 13:05 15.6
2020-Aug-03 12:55 15.6
2020-Aug-03 12:45 15.6
2020-Aug-03 12:35 15.6
2020-Aug-03 12:25 15.6
2020-Aug-03 12:15 15.6
2020-Aug-03 12:05 158 0 gusting 1 15.6
2020-Aug-03 11:55 158 0 gusting 1 15.6
2020-Aug-03 11:45 158 0 gusting 0 15.6
2020-Aug-03 11:35 158 0 gusting 0 15.6
2020-Aug-03 11:25 158 1 gusting 3 15.6
2020-Aug-03 11:15 158 0 gusting 1 16.1
2020-Aug-03 11:05 158 0 gusting 1 16.1
2020-Aug-03 10:55 180 1 gusting 3 16.1
2020-Aug-03 10:45 180 1 gusting 3 16.1
2020-Aug-03 10:35 158 0 gusting 2 16.1
2020-Aug-03 10:25 16.1
2020-Aug-03 10:15 158 0 gusting 1 16.1
2020-Aug-03 10:05 16.7
2020-Aug-03 09:55 158 0 gusting 1 16.7
2020-Aug-03 09:45 158 1 gusting 3 16.7
2020-Aug-03 09:35 203 0 gusting 1 16.7
2020-Aug-03 09:25 180 0 gusting 2 16.7
2020-Aug-03 09:15 180 0 gusting 1 16.7
2020-Aug-03 09:05 180 1 gusting 2 17.2
2020-Aug-03 08:55 180 1 gusting 2 17.2
2020-Aug-03 08:45 248 1 gusting 3 17.8
2020-Aug-03 08:35 270 0 gusting 1 17.8
2020-Aug-03 08:25 270 0 gusting 1 17.8
2020-Aug-03 08:15 17.8
2020-Aug-03 08:05 18.3
2020-Aug-03 07:55 270 0 gusting 1 18.3
2020-Aug-03 07:45 18.3
2020-Aug-03 07:35 18.3
2020-Aug-03 07:25 270 0 gusting 1 18.3
2020-Aug-03 07:15 18.9
2020-Aug-03 07:05 270 0 gusting 1 18.9
2020-Aug-03 06:55 18.9
2020-Aug-03 06:45 19.4
2020-Aug-03 06:35 270 1 gusting 2 19.4
2020-Aug-03 06:25 19.4
2020-Aug-03 06:15 293 1 gusting 1 19.4
2020-Aug-03 06:05 293 0 gusting 1 20.0
2020-Aug-03 05:55 293 0 gusting 1 20.0
2020-Aug-03 05:45 293 0 gusting 1 20.0
2020-Aug-03 05:35 248 0 gusting 2 20.0
2020-Aug-03 05:25 315 0 gusting 1 20.0
2020-Aug-03 05:15 293 1 gusting 2 20.0
2020-Aug-03 05:05 248 1 gusting 2 20.0
2020-Aug-03 04:55 315 0 gusting 1 20.0
2020-Aug-03 04:45 270 0 gusting 2 20.0
2020-Aug-03 04:35 270 1 gusting 2 20.6
2020-Aug-03 04:25 293 0 gusting 1 20.6
2020-Aug-03 04:15 293 0 gusting 1 21.1
2020-Aug-03 04:05 315 0 gusting 1 21.1
2020-Aug-03 03:55 293 0 gusting 2 21.7
2020-Aug-03 03:45 293 1 gusting 1 22.2
2020-Aug-03 03:35 293 1 gusting 2 22.2
2020-Aug-03 03:25 293 0 gusting 1 22.2
2020-Aug-03 03:15 293 0 gusting 2 22.8
2020-Aug-03 03:05 315 0 gusting 1 23.3
2020-Aug-03 02:55 23.9
2020-Aug-03 02:45 23.9
2020-Aug-03 02:35 225 2 gusting 3 24.4
2020-Aug-03 02:25 248 2 gusting 3 24.4
2020-Aug-03 02:15 248 2 gusting 3 25.6
2020-Aug-03 02:05 225 0 gusting 3 25.6
2020-Aug-03 01:55 270 2 gusting 4 26.1
2020-Aug-03 01:45 225 2 gusting 3 26.1
2020-Aug-03 01:35 225 2 gusting 5 26.1
2020-Aug-03 01:25 248 1 gusting 3 26.1
2020-Aug-03 01:15 315 1 gusting 3 26.1
2020-Aug-03 01:05 270 3 gusting 6 26.1
2020-Aug-03 00:55 225 2 gusting 6 26.1
2020-Aug-03 00:45 225 5 gusting 7 26.1
2020-Aug-03 00:35 248 2 gusting 4 26.7
2020-Aug-03 00:25 158 1 gusting 5 26.1
2020-Aug-03 00:15 158 2 gusting 4 26.1
2020-Aug-03 00:05 270 5 gusting 7 26.1
2020-Aug-02 23:55 293 1 gusting 2 26.1
2020-Aug-02 23:45 315 3 gusting 7 26.1
2020-Aug-02 23:35 203 2 gusting 3 26.7
2020-Aug-02 23:25 248 2 gusting 3 26.1
2020-Aug-02 23:15 248 2 gusting 3 25.6
2020-Aug-02 23:05 180 1 gusting 3 26.7
2020-Aug-02 22:55 180 4 gusting 6 26.1
2020-Aug-02 22:45 135 1 gusting 4 26.1
2020-Aug-02 22:35 180 1 gusting 4 26.1
2020-Aug-02 22:25 293 1 gusting 2 26.1
2020-Aug-02 22:15 270 3 gusting 5 25.6
2020-Aug-02 22:05 203 3 gusting 6 25.6
2020-Aug-02 21:55 270 4 gusting 8 26.1
2020-Aug-02 21:45 270 1 gusting 5 25.6
2020-Aug-02 21:35 270 2 gusting 5 25.0
2020-Aug-02 21:25 225 6 gusting 9 25.6
2020-Aug-02 21:15 270 2 gusting 6 24.4
2020-Aug-02 21:05 225 1 gusting 2 25.0
2020-Aug-02 20:55 203 3 gusting 6 24.4
2020-Aug-02 20:45 180 4 gusting 7 23.9
2020-Aug-02 20:35 293 2 gusting 6 23.9
2020-Aug-02 20:25 158 0 gusting 1 23.3
2020-Aug-02 20:15 180 6 gusting 9 23.3
2020-Aug-02 20:05 158 5 gusting 9 23.3
2020-Aug-02 19:55 180 6 gusting 9 23.3
2020-Aug-02 19:45 135 1 gusting 3 23.3
2020-Aug-02 19:35 158 2 gusting 4 22.8
2020-Aug-02 19:25 158 6 gusting 10 22.2
2020-Aug-02 19:15 203 6 gusting 9 22.2
2020-Aug-02 19:05 180 6 gusting 12 22.2
2020-Aug-02 18:55 180 4 gusting 7 21.7
2020-Aug-02 18:45 180 5 gusting 7 21.7
2020-Aug-02 18:35 203 2 gusting 6 21.1
2020-Aug-02 18:25 158 5 gusting 8 20.6
2020-Aug-02 18:15 203 5 gusting 6 21.1
2020-Aug-02 18:05 180 2 gusting 4 20.6
2020-Aug-02 17:55 180 5 gusting 8 20.6
2020-Aug-02 17:45 203 6 gusting 10 21.1
2020-Aug-02 17:35 180 2 gusting 3 20.6
2020-Aug-02 17:25 203 0 gusting 1 20.6
2020-Aug-02 17:15 180 2 gusting 4 19.4
2020-Aug-02 17:05 180 4 gusting 6 19.4
2020-Aug-02 16:55 158 3 gusting 6 18.9
2020-Aug-02 16:45 203 4 gusting 5 18.9
2020-Aug-02 16:35 180 4 gusting 6 18.3
2020-Aug-02 16:25 248 3 gusting 7 18.3
2020-Aug-02 16:15 180 3 gusting 6 18.3
2020-Aug-02 16:05 158 3 gusting 6 17.8
2020-Aug-02 15:55 225 2 gusting 5 17.8
2020-Aug-02 15:45 180 4 gusting 6 17.2
2020-Aug-02 15:35 180 2 gusting 3 17.2
2020-Aug-02 15:25 180 4 gusting 6 16.7
2020-Aug-02 15:15 203 4 gusting 6 16.7
2020-Aug-02 15:05 203 1 gusting 4 16.1
2020-Aug-02 14:55 135 1 gusting 2 16.1
2020-Aug-02 14:45 158 1 gusting 2 15.6
2020-Aug-02 14:35 15.6
2020-Aug-02 14:25 158 0 gusting 3 15.6
2020-Aug-02 14:15 158 0 gusting 2 15.0
2020-Aug-02 14:05 158 0 gusting 2 15.0